sensor_id;sensor_type;location;lat;lon;timestamp;temperature;humidity
25302;DHT22;13243;50.888;4.724;2023-03-25T00:00:34;9.80;99.90
25302;DHT22;13243;50.888;4.724;2023-03-25T00:05:40;9.70;99.90
25302;DHT22;13243;50.888;4.724;2023-03-25T00:10:42;9.70;99.90
25302;DHT22;13243;50.888;4.724;2023-03-25T00:15:43;9.70;99.90
25302;DHT22;13243;50.888;4.724;2023-03-25T00:20:49;9.60;99.90
25302;DHT22;13243;50.888;4.724;2023-03-25T00:25:51;9.60;99.90
25302;DHT22;13243;50.888;4.724;2023-03-25T00:30:54;9.60;99.90
25302;DHT22;13243;50.888;4.724;2023-03-25T00:35:58;9.70;99.90
25302;DHT22;13243;50.888;4.724;2023-03-25T00:41:27;9.70;99.90
25302;DHT22;13243;50.888;4.724;2023-03-25T00:46:32;9.60;99.90
25302;DHT22;13243;50.888;4.724;2023-03-25T00:51:34;9.60;99.90
25302;DHT22;13243;50.888;4.724;2023-03-25T00:56:53;9.60;99.90
25302;DHT22;13243;50.888;4.724;2023-03-25T01:01:56;9.60;99.90
25302;DHT22;13243;50.888;4.724;2023-03-25T01:06:58;9.60;99.90
25302;DHT22;13243;50.888;4.724;2023-03-25T01:12:02;9.60;99.90
25302;DHT22;13243;50.888;4.724;2023-03-25T01:17:04;9.60;99.90
25302;DHT22;13243;50.888;4.724;2023-03-25T01:22:06;9.70;99.90
25302;DHT22;13243;50.888;4.724;2023-03-25T01:27:08;9.60;99.90
25302;DHT22;13243;50.888;4.724;2023-03-25T01:32:10;9.40;99.90
25302;DHT22;13243;50.888;4.724;2023-03-25T01:37:12;9.50;99.90
25302;DHT22;13243;50.888;4.724;2023-03-25T01:42:14;9.60;99.90
25302;DHT22;13243;50.888;4.724;2023-03-25T01:47:16;9.50;99.90
25302;DHT22;13243;50.888;4.724;2023-03-25T01:52:23;9.50;99.90
25302;DHT22;13243;50.888;4.724;2023-03-25T01:57:26;9.50;99.90
25302;DHT22;13243;50.888;4.724;2023-03-25T02:02:28;9.50;99.90
25302;DHT22;13243;50.888;4.724;2023-03-25T02:07:40;9.50;99.90
25302;DHT22;13243;50.888;4.724;2023-03-25T02:12:44;9.40;99.90
25302;DHT22;13243;50.888;4.724;2023-03-25T02:18:07;9.40;99.90
25302;DHT22;13243;50.888;4.724;2023-03-25T02:29:02;9.50;99.90
25302;DHT22;13243;50.888;4.724;2023-03-25T02:34:32;9.50;99.90
25302;DHT22;13243;50.888;4.724;2023-03-25T02:40:15;9.50;99.90
25302;DHT22;13243;50.888;4.724;2023-03-25T02:45:24;9.50;99.90
25302;DHT22;13243;50.888;4.724;2023-03-25T02:50:32;9.40;99.90
25302;DHT22;13243;50.888;4.724;2023-03-25T02:55:36;9.50;99.90
25302;DHT22;13243;50.888;4.724;2023-03-25T03:00:38;9.40;99.90
25302;DHT22;13243;50.888;4.724;2023-03-25T03:05:43;9.40;99.90
25302;DHT22;13243;50.888;4.724;2023-03-25T03:21:46;9.30;99.90
25302;DHT22;13243;50.888;4.724;2023-03-25T03:27:04;9.20;99.90
25302;DHT22;13243;50.888;4.724;2023-03-25T03:32:19;9.30;99.90
25302;DHT22;13243;50.888;4.724;2023-03-25T03:37:31;9.30;99.90
25302;DHT22;13243;50.888;4.724;2023-03-25T03:42:39;9.30;99.90
25302;DHT22;13243;50.888;4.724;2023-03-25T03:47:47;9.20;99.90
25302;DHT22;13243;50.888;4.724;2023-03-25T03:58:13;9.20;99.90
25302;DHT22;13243;50.888;4.724;2023-03-25T04:03:21;9.10;99.90
25302;DHT22;13243;50.888;4.724;2023-03-25T04:08:32;9.00;99.90
25302;DHT22;13243;50.888;4.724;2023-03-25T04:13:38;9.00;99.90
25302;DHT22;13243;50.888;4.724;2023-03-25T04:18:40;9.00;99.90
25302;DHT22;13243;50.888;4.724;2023-03-25T04:23:44;9.00;99.90
25302;DHT22;13243;50.888;4.724;2023-03-25T04:28:46;8.90;99.90
25302;DHT22;13243;50.888;4.724;2023-03-25T04:33:48;8.90;99.90
25302;DHT22;13243;50.888;4.724;2023-03-25T04:38:51;8.90;99.90
25302;DHT22;13243;50.888;4.724;2023-03-25T04:43:53;8.90;99.90
25302;DHT22;13243;50.888;4.724;2023-03-25T04:48:55;9.00;99.90
25302;DHT22;13243;50.888;4.724;2023-03-25T04:53:58;8.90;99.90
25302;DHT22;13243;50.888;4.724;2023-03-25T04:59:00;8.90;99.90
25302;DHT22;13243;50.888;4.724;2023-03-25T05:04:03;8.80;99.90
25302;DHT22;13243;50.888;4.724;2023-03-25T05:09:08;8.90;99.90
25302;DHT22;13243;50.888;4.724;2023-03-25T05:14:12;9.00;99.90
25302;DHT22;13243;50.888;4.724;2023-03-25T05:19:15;9.00;99.90
25302;DHT22;13243;50.888;4.724;2023-03-25T05:24:19;9.00;99.90
25302;DHT22;13243;50.888;4.724;2023-03-25T05:29:21;9.00;99.90
25302;DHT22;13243;50.888;4.724;2023-03-25T05:34:23;9.00;99.90
25302;DHT22;13243;50.888;4.724;2023-03-25T05:39:26;9.00;99.90
25302;DHT22;13243;50.888;4.724;2023-03-25T05:44:28;9.00;99.90
25302;DHT22;13243;50.888;4.724;2023-03-25T05:49:30;9.00;99.90
25302;DHT22;13243;50.888;4.724;2023-03-25T05:54:31;9.00;99.90
25302;DHT22;13243;50.888;4.724;2023-03-25T05:59:35;9.00;99.90
25302;DHT22;13243;50.888;4.724;2023-03-25T06:04:39;9.10;99.90
25302;DHT22;13243;50.888;4.724;2023-03-25T06:09:50;9.00;99.90
25302;DHT22;13243;50.888;4.724;2023-03-25T06:14:54;9.00;99.90
25302;DHT22;13243;50.888;4.724;2023-03-25T06:19:56;9.10;99.90
25302;DHT22;13243;50.888;4.724;2023-03-25T06:24:58;9.10;99.90
25302;DHT22;13243;50.888;4.724;2023-03-25T06:30:03;9.00;99.90
25302;DHT22;13243;50.888;4.724;2023-03-25T06:35:06;9.00;99.90
25302;DHT22;13243;50.888;4.724;2023-03-25T06:40:10;9.10;99.90
25302;DHT22;13243;50.888;4.724;2023-03-25T06:45:12;9.20;99.90
25302;DHT22;13243;50.888;4.724;2023-03-25T06:50:14;9.30;99.90
25302;DHT22;13243;50.888;4.724;2023-03-25T06:55:16;9.30;99.90
25302;DHT22;13243;50.888;4.724;2023-03-25T07:00:17;9.30;99.90
25302;DHT22;13243;50.888;4.724;2023-03-25T07:05:24;9.30;99.90
25302;DHT22;13243;50.888;4.724;2023-03-25T07:10:26;9.20;99.90
25302;DHT22;13243;50.888;4.724;2023-03-25T07:15:28;9.20;99.90
25302;DHT22;13243;50.888;4.724;2023-03-25T07:20:30;9.40;99.90
25302;DHT22;13243;50.888;4.724;2023-03-25T07:25:32;9.60;99.90
25302;DHT22;13243;50.888;4.724;2023-03-25T07:30:34;9.60;99.90
25302;DHT22;13243;50.888;4.724;2023-03-25T07:35:36;9.70;99.90
25302;DHT22;13243;50.888;4.724;2023-03-25T07:40:37;9.70;99.90
25302;DHT22;13243;50.888;4.724;2023-03-25T07:45:39;9.80;99.90
25302;DHT22;13243;50.888;4.724;2023-03-25T07:50:56;9.80;99.90
25302;DHT22;13243;50.888;4.724;2023-03-25T07:55:58;9.80;99.90
25302;DHT22;13243;50.888;4.724;2023-03-25T08:01:00;9.90;99.90
25302;DHT22;13243;50.888;4.724;2023-03-25T08:06:02;10.00;99.90
25302;DHT22;13243;50.888;4.724;2023-03-25T08:11:05;10.10;99.90
25302;DHT22;13243;50.888;4.724;2023-03-25T08:16:11;10.10;99.90
25302;DHT22;13243;50.888;4.724;2023-03-25T08:21:13;10.10;99.90
25302;DHT22;13243;50.888;4.724;2023-03-25T08:26:15;10.00;99.90
25302;DHT22;13243;50.888;4.724;2023-03-25T08:31:17;10.10;99.90
25302;DHT22;13243;50.888;4.724;2023-03-25T08:36:21;10.10;99.90
25302;DHT22;13243;50.888;4.724;2023-03-25T08:41:24;10.10;99.90
25302;DHT22;13243;50.888;4.724;2023-03-25T08:46:26;10.10;99.90
25302;DHT22;13243;50.888;4.724;2023-03-25T08:51:27;10.00;99.90
25302;DHT22;13243;50.888;4.724;2023-03-25T08:56:29;10.30;99.90
25302;DHT22;13243;50.888;4.724;2023-03-25T09:01:31;10.40;99.90
25302;DHT22;13243;50.888;4.724;2023-03-25T09:06:34;10.50;99.90
25302;DHT22;13243;50.888;4.724;2023-03-25T09:11:48;10.70;99.90
25302;DHT22;13243;50.888;4.724;2023-03-25T09:16:50;10.50;99.90
25302;DHT22;13243;50.888;4.724;2023-03-25T09:21:53;10.70;99.90
25302;DHT22;13243;50.888;4.724;2023-03-25T09:26:54;10.70;99.90
25302;DHT22;13243;50.888;4.724;2023-03-25T09:31:56;10.70;99.90
25302;DHT22;13243;50.888;4.724;2023-03-25T09:37:00;10.60;99.90
25302;DHT22;13243;50.888;4.724;2023-03-25T09:47:28;9.50;99.90
25302;DHT22;13243;50.888;4.724;2023-03-25T09:52:35;9.60;99.90
25302;DHT22;13243;50.888;4.724;2023-03-25T09:57:48;9.70;99.90
25302;DHT22;13243;50.888;4.724;2023-03-25T10:25:14;10.30;99.90
25302;DHT22;13243;50.888;4.724;2023-03-25T10:35:16;10.10;99.90
25302;DHT22;13243;50.888;4.724;2023-03-25T10:45:25;11.00;99.90
25302;DHT22;13243;50.888;4.724;2023-03-25T10:50:29;11.40;99.90
25302;DHT22;13243;50.888;4.724;2023-03-25T10:55:32;11.90;99.90
25302;DHT22;13243;50.888;4.724;2023-03-25T11:00:36;12.00;99.90
25302;DHT22;13243;50.888;4.724;2023-03-25T11:05:38;12.30;99.90
25302;DHT22;13243;50.888;4.724;2023-03-25T11:10:46;12.30;99.90
25302;DHT22;13243;50.888;4.724;2023-03-25T11:15:52;12.60;99.90
25302;DHT22;13243;50.888;4.724;2023-03-25T11:21:13;12.40;99.90
25302;DHT22;13243;50.888;4.724;2023-03-25T11:26:20;12.40;99.90
25302;DHT22;13243;50.888;4.724;2023-03-25T11:31:25;12.50;99.90
25302;DHT22;13243;50.888;4.724;2023-03-25T11:36:30;12.30;99.90
25302;DHT22;13243;50.888;4.724;2023-03-25T11:41:34;11.90;99.90
25302;DHT22;13243;50.888;4.724;2023-03-25T11:46:41;12.00;99.90
25302;DHT22;13243;50.888;4.724;2023-03-25T11:51:43;11.70;99.90
25302;DHT22;13243;50.888;4.724;2023-03-25T11:56:47;11.60;99.90
25302;DHT22;13243;50.888;4.724;2023-03-25T12:02:01;11.40;99.90
25302;DHT22;13243;50.888;4.724;2023-03-25T12:07:08;10.50;99.90
25302;DHT22;13243;50.888;4.724;2023-03-25T12:12:31;10.10;99.90
25302;DHT22;13243;50.888;4.724;2023-03-25T12:17:44;10.10;99.90
25302;DHT22;13243;50.888;4.724;2023-03-25T12:28:09;10.00;99.90
25302;DHT22;13243;50.888;4.724;2023-03-25T12:38:37;10.30;99.90
25302;DHT22;13243;50.888;4.724;2023-03-25T12:43:52;10.50;99.90
25302;DHT22;13243;50.888;4.724;2023-03-25T12:49:13;10.70;99.90
25302;DHT22;13243;50.888;4.724;2023-03-25T13:00:31;10.80;99.90
25302;DHT22;13243;50.888;4.724;2023-03-25T13:05:52;10.60;99.90
25302;DHT22;13243;50.888;4.724;2023-03-25T13:10:59;10.80;99.90
25302;DHT22;13243;50.888;4.724;2023-03-25T13:21:16;11.20;99.90
25302;DHT22;13243;50.888;4.724;2023-03-25T13:26:24;11.40;99.90
25302;DHT22;13243;50.888;4.724;2023-03-25T13:31:34;11.00;99.90
25302;DHT22;13243;50.888;4.724;2023-03-25T13:36:47;11.10;99.90
25302;DHT22;13243;50.888;4.724;2023-03-25T13:42:09;11.60;99.90
25302;DHT22;13243;50.888;4.724;2023-03-25T13:47:22;12.00;99.90
25302;DHT22;13243;50.888;4.724;2023-03-25T13:52:30;12.60;99.90
25302;DHT22;13243;50.888;4.724;2023-03-25T14:14:04;14.10;99.90
25302;DHT22;13243;50.888;4.724;2023-03-25T14:19:13;14.30;99.90
25302;DHT22;13243;50.888;4.724;2023-03-25T14:24:31;14.40;99.90
25302;DHT22;13243;50.888;4.724;2023-03-25T14:34:42;14.60;99.90
25302;DHT22;13243;50.888;4.724;2023-03-25T14:39:44;13.90;99.90
25302;DHT22;13243;50.888;4.724;2023-03-25T14:44:49;14.30;99.90
25302;DHT22;13243;50.888;4.724;2023-03-25T14:50:02;13.70;99.90
25302;DHT22;13243;50.888;4.724;2023-03-25T14:55:21;13.40;99.90
25302;DHT22;13243;50.888;4.724;2023-03-25T15:00:30;13.30;99.90
25302;DHT22;13243;50.888;4.724;2023-03-25T15:05:34;13.60;99.90
25302;DHT22;13243;50.888;4.724;2023-03-25T15:10:42;12.80;99.90
25302;DHT22;13243;50.888;4.724;2023-03-25T15:20:47;13.70;99.90
25302;DHT22;13243;50.888;4.724;2023-03-25T15:25:51;13.00;99.90
25302;DHT22;13243;50.888;4.724;2023-03-25T15:31:13;12.70;99.90
25302;DHT22;13243;50.888;4.724;2023-03-25T15:36:34;12.80;99.90
25302;DHT22;13243;50.888;4.724;2023-03-25T15:47:31;12.60;99.90
25302;DHT22;13243;50.888;4.724;2023-03-25T15:58:10;12.50;99.90
25302;DHT22;13243;50.888;4.724;2023-03-25T16:03:13;12.20;99.90
25302;DHT22;13243;50.888;4.724;2023-03-25T16:08:26;12.30;99.90
25302;DHT22;13243;50.888;4.724;2023-03-25T16:13:28;12.30;99.90
25302;DHT22;13243;50.888;4.724;2023-03-25T16:18:30;12.60;99.90
25302;DHT22;13243;50.888;4.724;2023-03-25T16:23:34;12.60;99.90
25302;DHT22;13243;50.888;4.724;2023-03-25T16:28:40;12.90;99.90
25302;DHT22;13243;50.888;4.724;2023-03-25T16:33:46;13.30;99.90
25302;DHT22;13243;50.888;4.724;2023-03-25T16:38:49;13.20;99.90
25302;DHT22;13243;50.888;4.724;2023-03-25T16:43:51;12.80;99.90
25302;DHT22;13243;50.888;4.724;2023-03-25T16:48:55;12.70;99.90
25302;DHT22;13243;50.888;4.724;2023-03-25T16:53:57;12.60;99.90
25302;DHT22;13243;50.888;4.724;2023-03-25T17:04:17;12.50;99.90
25302;DHT22;13243;50.888;4.724;2023-03-25T17:09:23;12.40;99.90
25302;DHT22;13243;50.888;4.724;2023-03-25T17:14:32;12.40;99.90
25302;DHT22;13243;50.888;4.724;2023-03-25T17:19:44;12.30;99.90
25302;DHT22;13243;50.888;4.724;2023-03-25T17:24:55;12.30;99.90
25302;DHT22;13243;50.888;4.724;2023-03-25T17:29:58;12.20;99.90
25302;DHT22;13243;50.888;4.724;2023-03-25T17:35:03;12.20;99.90
25302;DHT22;13243;50.888;4.724;2023-03-25T17:40:07;12.10;99.90
25302;DHT22;13243;50.888;4.724;2023-03-25T17:45:15;12.00;99.90
25302;DHT22;13243;50.888;4.724;2023-03-25T17:50:20;12.00;99.90
25302;DHT22;13243;50.888;4.724;2023-03-25T17:55:22;11.90;99.90
25302;DHT22;13243;50.888;4.724;2023-03-25T18:00:24;11.80;99.90
25302;DHT22;13243;50.888;4.724;2023-03-25T18:05:26;11.80;99.90
25302;DHT22;13243;50.888;4.724;2023-03-25T18:10:28;11.80;99.90
25302;DHT22;13243;50.888;4.724;2023-03-25T18:15:31;11.70;99.90
25302;DHT22;13243;50.888;4.724;2023-03-25T18:20:36;11.70;99.90
25302;DHT22;13243;50.888;4.724;2023-03-25T18:25:39;11.70;99.90
25302;DHT22;13243;50.888;4.724;2023-03-25T18:30:42;11.70;99.90
25302;DHT22;13243;50.888;4.724;2023-03-25T18:35:44;11.70;99.90
25302;DHT22;13243;50.888;4.724;2023-03-25T18:40:47;11.60;99.90
25302;DHT22;13243;50.888;4.724;2023-03-25T18:45:49;11.50;99.90
25302;DHT22;13243;50.888;4.724;2023-03-25T18:50:56;11.40;99.90
25302;DHT22;13243;50.888;4.724;2023-03-25T18:56:00;11.40;99.90
25302;DHT22;13243;50.888;4.724;2023-03-25T19:01:04;11.40;99.90
25302;DHT22;13243;50.888;4.724;2023-03-25T19:06:10;11.40;99.90
25302;DHT22;13243;50.888;4.724;2023-03-25T19:11:13;11.30;99.90
25302;DHT22;13243;50.888;4.724;2023-03-25T19:16:22;11.30;99.90
25302;DHT22;13243;50.888;4.724;2023-03-25T19:21:24;11.20;99.90
25302;DHT22;13243;50.888;4.724;2023-03-25T19:26:26;11.20;99.90
25302;DHT22;13243;50.888;4.724;2023-03-25T19:31:28;11.10;99.90
25302;DHT22;13243;50.888;4.724;2023-03-25T19:36:31;11.00;99.90
25302;DHT22;13243;50.888;4.724;2023-03-25T19:41:36;11.00;99.90
25302;DHT22;13243;50.888;4.724;2023-03-25T19:46:43;10.90;99.90
25302;DHT22;13243;50.888;4.724;2023-03-25T19:51:44;10.80;99.90
25302;DHT22;13243;50.888;4.724;2023-03-25T19:56:46;10.80;99.90
25302;DHT22;13243;50.888;4.724;2023-03-25T20:01:48;10.70;99.90
25302;DHT22;13243;50.888;4.724;2023-03-25T20:06:50;10.70;99.90
25302;DHT22;13243;50.888;4.724;2023-03-25T20:11:52;10.60;99.90
25302;DHT22;13243;50.888;4.724;2023-03-25T20:16:54;10.50;99.90
25302;DHT22;13243;50.888;4.724;2023-03-25T20:21:56;10.50;99.90
25302;DHT22;13243;50.888;4.724;2023-03-25T20:26:58;10.40;99.90
25302;DHT22;13243;50.888;4.724;2023-03-25T20:32:00;10.30;99.90
25302;DHT22;13243;50.888;4.724;2023-03-25T20:37:02;10.30;99.90
25302;DHT22;13243;50.888;4.724;2023-03-25T20:42:04;10.30;99.90
25302;DHT22;13243;50.888;4.724;2023-03-25T20:47:06;10.20;99.90
25302;DHT22;13243;50.888;4.724;2023-03-25T20:52:09;10.20;99.90
25302;DHT22;13243;50.888;4.724;2023-03-25T20:57:12;10.20;99.90
25302;DHT22;13243;50.888;4.724;2023-03-25T21:02:14;10.20;99.90
25302;DHT22;13243;50.888;4.724;2023-03-25T21:07:17;10.10;99.90
25302;DHT22;13243;50.888;4.724;2023-03-25T21:12:20;10.10;99.90
25302;DHT22;13243;50.888;4.724;2023-03-25T21:17:33;10.10;99.90
25302;DHT22;13243;50.888;4.724;2023-03-25T21:22:39;10.00;99.90
25302;DHT22;13243;50.888;4.724;2023-03-25T21:27:43;10.00;99.90
25302;DHT22;13243;50.888;4.724;2023-03-25T21:32:47;10.00;99.90
25302;DHT22;13243;50.888;4.724;2023-03-25T21:37:49;9.90;99.90
25302;DHT22;13243;50.888;4.724;2023-03-25T21:42:52;9.80;99.90
25302;DHT22;13243;50.888;4.724;2023-03-25T21:47:53;9.90;99.90
25302;DHT22;13243;50.888;4.724;2023-03-25T21:52:56;9.80;99.90
25302;DHT22;13243;50.888;4.724;2023-03-25T21:57:57;9.80;99.90
25302;DHT22;13243;50.888;4.724;2023-03-25T22:03:00;9.80;99.90
25302;DHT22;13243;50.888;4.724;2023-03-25T22:08:01;9.80;99.90
25302;DHT22;13243;50.888;4.724;2023-03-25T22:13:03;9.80;99.90
25302;DHT22;13243;50.888;4.724;2023-03-25T22:18:05;9.80;99.90
25302;DHT22;13243;50.888;4.724;2023-03-25T22:23:07;9.80;99.90
25302;DHT22;13243;50.888;4.724;2023-03-25T22:28:10;9.80;99.90
25302;DHT22;13243;50.888;4.724;2023-03-25T22:33:12;9.80;99.90
25302;DHT22;13243;50.888;4.724;2023-03-25T22:38:14;9.80;99.90
25302;DHT22;13243;50.888;4.724;2023-03-25T22:43:16;9.80;99.90
25302;DHT22;13243;50.888;4.724;2023-03-25T22:48:18;9.80;99.90
25302;DHT22;13243;50.888;4.724;2023-03-25T22:53:20;9.80;99.90
25302;DHT22;13243;50.888;4.724;2023-03-25T22:58:24;9.70;99.90
25302;DHT22;13243;50.888;4.724;2023-03-25T23:03:27;9.70;99.90
25302;DHT22;13243;50.888;4.724;2023-03-25T23:08:31;9.70;99.90
25302;DHT22;13243;50.888;4.724;2023-03-25T23:13:34;9.70;99.90
25302;DHT22;13243;50.888;4.724;2023-03-25T23:18:36;9.70;99.90
25302;DHT22;13243;50.888;4.724;2023-03-25T23:23:38;9.60;99.90
25302;DHT22;13243;50.888;4.724;2023-03-25T23:28:55;9.70;99.90
25302;DHT22;13243;50.888;4.724;2023-03-25T23:34:05;9.60;99.90
25302;DHT22;13243;50.888;4.724;2023-03-25T23:39:10;9.60;99.90
25302;DHT22;13243;50.888;4.724;2023-03-25T23:44:12;9.60;99.90
25302;DHT22;13243;50.888;4.724;2023-03-25T23:49:14;9.60;99.90
25302;DHT22;13243;50.888;4.724;2023-03-25T23:54:18;9.60;99.90
25302;DHT22;13243;50.888;4.724;2023-03-25T23:59:20;9.70;99.90
